Time;durP1;ratioP1;P1;durP2;ratioP2;P2;SDS_P1;SDS_P2;PMS_P1;PMS_P2;Temp;Humidity;BMP_temperature;BMP_pressure;BME280_temperature;BME280_humidity;BME280_pressure;Samples;Min_cycle;Max_cycle;Signal;HPM_P1;HPM_P2
2022/03/10 00:01:59;;;;;;;21.42;13.23;;;;;;;4.26;41.60;97384.84;6309554;22;20385;-82
2022/03/10 00:04:28;;;;;;;18.15;12.27;;;;;;;4.21;42.26;97391.31;6310090;22;20019;-83
2022/03/10 00:06:58;;;;;;;21.17;13.48;;;;;;;4.21;41.99;97384.38;6307948;22;20029;-82
2022/03/10 00:09:25;;;;;;;21.35;13.70;;;;;;;4.15;42.04;97382.28;6307814;22;20399;-82
2022/03/10 00:11:53;;;;;;;18.90;12.73;;;;;;;4.07;42.08;97382.09;6306965;22;20029;-81
2022/03/10 00:14:20;;;;;;;19.35;13.45;;;;;;;4.08;42.56;97392.25;6307182;22;20363;-82
2022/03/10 00:16:49;;;;;;;23.77;13.73;;;;;;;4.10;42.40;97387.81;6307386;22;20015;-81
2022/03/10 00:19:17;;;;;;;24.83;15.23;;;;;;;4.09;42.51;97399.09;6307017;22;20068;-81
2022/03/10 00:21:47;;;;;;;22.40;13.18;;;;;;;4.08;42.70;97394.03;6306960;22;20023;-83
2022/03/10 00:24:16;;;;;;;17.48;11.50;;;;;;;4.17;42.55;97392.47;6309301;22;20029;-83
2022/03/10 00:26:44;;;;;;;19.17;12.38;;;;;;;4.25;42.01;97390.13;6309012;22;20015;-83
2022/03/10 00:29:12;;;;;;;21.23;11.38;;;;;;;4.25;42.24;97395.28;6335535;22;20094;-83
2022/03/10 00:31:40;;;;;;;17.35;11.48;;;;;;;4.17;41.98;97395.88;6332834;22;20082;-81
2022/03/10 00:34:07;;;;;;;17.73;11.93;;;;;;;4.05;42.11;97400.25;6316352;22;20022;-83
2022/03/10 00:36:35;;;;;;;16.52;10.95;;;;;;;4.04;42.85;97403.78;6311057;22;20447;-82
2022/03/10 00:39:04;;;;;;;17.15;11.77;;;;;;;4.12;42.89;97405.75;6334022;22;20067;-83
2022/03/10 00:41:32;;;;;;;20.13;12.68;;;;;;;4.20;42.51;97403.41;6325092;22;20019;-82
2022/03/10 00:44:00;;;;;;;22.27;14.32;;;;;;;4.17;42.34;97407.97;6311144;22;20067;-83
2022/03/10 00:46:28;;;;;;;21.70;14.10;;;;;;;4.04;42.31;97403.78;6310241;22;20025;-83
2022/03/10 00:48:55;;;;;;;24.58;14.75;;;;;;;3.98;42.62;97409.44;6306627;22;20068;-84
2022/03/10 00:51:23;;;;;;;24.33;13.73;;;;;;;3.93;42.61;97401.22;6307145;22;20354;-84
2022/03/10 00:53:51;;;;;;;24.67;13.95;;;;;;;3.80;42.72;97403.13;6308448;22;20015;-82
2022/03/10 00:56:20;;;;;;;22.80;13.82;;;;;;;3.74;43.96;97406.16;6309889;22;20035;-82
2022/03/10 00:58:47;;;;;;;23.80;13.90;;;;;;;3.74;43.44;97401.00;6310241;22;20018;-83
2022/03/10 01:01:15;;;;;;;22.48;13.30;;;;;;;3.68;43.53;97397.97;6308574;22;20051;-83
2022/03/10 01:03:43;;;;;;;22.63;14.10;;;;;;;3.68;43.82;97410.06;6306612;22;20102;-83
2022/03/10 01:06:11;;;;;;;21.23;13.35;;;;;;;3.76;43.39;97406.88;6305868;22;20013;-82
2022/03/10 01:08:38;;;;;;;25.38;13.63;;;;;;;3.75;43.05;97397.50;6306998;22;20018;-83
2022/03/10 01:11:06;;;;;;;19.75;13.13;;;;;;;3.71;43.32;97399.50;6307941;22;20417;-83
2022/03/10 01:13:35;;;;;;;20.95;13.85;;;;;;;3.64;43.59;97401.72;6307969;22;20019;-83
2022/03/10 01:16:04;;;;;;;22.63;13.70;;;;;;;3.54;43.56;97398.22;6306580;22;20454;-82
2022/03/10 01:18:32;;;;;;;18.45;12.30;;;;;;;3.51;43.56;97401.03;6307999;22;20087;-83
2022/03/10 01:20:59;;;;;;;25.08;14.07;;;;;;;3.47;43.74;97399.63;6308753;22;20011;-82
2022/03/10 01:23:27;;;;;;;25.38;14.40;;;;;;;3.49;44.14;97397.75;6308618;22;20025;-82
2022/03/10 01:25:55;;;;;;;20.20;13.70;;;;;;;3.58;43.79;97399.63;6307535;22;20019;-82
2022/03/10 01:28:23;;;;;;;25.90;14.98;;;;;;;3.57;43.53;97394.59;6308406;22;20023;-82
2022/03/10 01:30:52;;;;;;;23.65;15.20;;;;;;;3.40;43.82;97399.28;6307374;22;20012;-81
2022/03/10 01:33:19;;;;;;;20.95;13.48;;;;;;;3.28;44.08;97401.03;6308384;22;20042;-81
2022/03/10 01:35:47;;;;;;;23.27;14.30;;;;;;;3.29;44.51;97401.84;6307142;22;20015;-81
2022/03/10 01:38:14;;;;;;;20.98;13.65;;;;;;;3.31;44.18;97399.97;6307784;22;20015;-81
2022/03/10 01:40:44;;;;;;;20.58;14.00;;;;;;;3.28;44.34;97406.19;6307682;22;20023;-81
2022/03/10 01:43:11;;;;;;;21.52;13.57;;;;;;;3.22;44.27;97406.66;6308163;22;20038;-81
2022/03/10 01:45:39;;;;;;;24.95;15.57;;;;;;;3.19;44.57;97401.75;6308110;22;20022;-81
2022/03/10 01:48:08;;;;;;;27.45;14.88;;;;;;;3.13;44.59;97397.03;6307559;22;20072;-81
2022/03/10 01:50:35;;;;;;;26.25;15.30;;;;;;;3.07;44.72;97397.50;6310611;22;20103;-82
2022/03/10 01:53:03;;;;;;;21.70;14.38;;;;;;;3.06;45.14;97396.69;6309316;22;20015;-82
2022/03/10 01:55:31;;;;;;;23.20;13.98;;;;;;;3.15;44.98;97397.75;6309085;22;20359;-81
2022/03/10 01:57:59;;;;;;;22.75;14.93;;;;;;;3.24;45.04;97394.47;6307203;22;20015;-81
2022/03/10 02:00:27;;;;;;;20.05;13.75;;;;;;;3.34;44.89;97392.00;6306385;22;20020;-81
2022/03/10 02:02:55;;;;;;;20.02;12.90;;;;;;;3.48;44.60;97390.97;6308310;22;20019;-82
2022/03/10 02:05:24;;;;;;;20.08;12.60;;;;;;;3.51;44.25;97385.56;6308821;22;20012;-83
2022/03/10 02:10:37;;;;;;;18.65;12.80;;;;;;;3.39;44.54;97392.50;6308476;22;20023;-83
2022/03/10 02:13:04;;;;;;;20.45;13.18;;;;;;;3.46;44.20;97393.66;6307472;22;20026;-82
2022/03/10 02:18:19;;;;;;;21.40;12.35;;;;;;;3.59;43.73;97393.53;6307449;22;20090;-82
2022/03/10 02:20:48;;;;;;;19.95;12.60;;;;;;;3.56;43.79;97398.91;6307125;22;20022;-82
2022/03/10 02:23:18;;;;;;;18.92;13.20;;;;;;;3.45;43.85;97386.84;6307540;22;20102;-82
2022/03/10 02:25:46;;;;;;;18.92;12.27;;;;;;;3.37;44.10;97396.09;6314542;22;20478;-83
2022/03/10 02:28:16;;;;;;;16.13;11.52;;;;;;;3.30;43.98;97391.44;6318782;22;20324;-83
2022/03/10 02:30:44;;;;;;;16.95;11.27;;;;;;;3.25;44.54;97390.94;6320813;22;20051;-83
2022/03/10 02:33:12;;;;;;;15.18;10.63;;;;;;;3.28;44.55;97389.91;6318195;22;20414;-84
2022/03/10 02:35:40;;;;;;;16.35;11.27;;;;;;;3.40;44.43;97383.00;6311838;22;20023;-83
2022/03/10 02:38:07;;;;;;;18.73;12.30;;;;;;;3.43;44.22;97387.91;6309709;22;20026;-83
2022/03/10 02:40:36;;;;;;;16.48;11.55;;;;;;;3.39;44.12;97391.66;6310579;22;20058;-83
2022/03/10 02:43:04;;;;;;;17.73;12.02;;;;;;;3.35;44.11;97392.84;6309580;22;20042;-84
2022/03/10 02:45:32;;;;;;;19.23;12.50;;;;;;;3.15;44.31;97395.19;6309497;22;20100;-83
2022/03/10 02:48:00;;;;;;;18.40;12.07;;;;;;;2.97;44.62;97397.34;6309012;22;20447;-83
2022/03/10 02:50:28;;;;;;;18.52;11.25;;;;;;;2.88;45.04;97396.28;6309622;22;20038;-83
2022/03/10 02:52:55;;;;;;;14.20;10.35;;;;;;;2.92;45.54;97403.81;6309520;22;20020;-83
2022/03/10 02:55:25;;;;;;;16.48;10.77;;;;;;;3.02;45.36;97397.03;6309334;22;20041;-83
2022/03/10 02:57:54;;;;;;;15.50;10.57;;;;;;;3.06;45.15;97401.00;6308663;22;20019;-83
2022/03/10 03:00:21;;;;;;;20.17;11.65;;;;;;;3.08;44.79;97399.97;6309703;22;20019;-83
2022/03/10 03:02:49;;;;;;;18.33;12.00;;;;;;;3.15;44.88;97405.50;6309939;22;20471;-83
2022/03/10 03:05:17;;;;;;;17.67;11.77;;;;;;;3.25;44.57;97406.41;6310193;22;20374;-82
2022/03/10 03:07:46;;;;;;;17.27;11.95;;;;;;;3.35;44.62;97409.13;6309688;22;20023;-83
2022/03/10 03:10:14;;;;;;;17.38;12.48;;;;;;;3.29;44.35;97409.59;6309634;22;20015;-83
2022/03/10 03:12:45;;;;;;;18.77;11.15;;;;;;;3.15;44.74;97410.66;6311109;22;20069;-84
2022/03/10 03:15:14;;;;;;;16.55;10.98;;;;;;;3.13;44.98;97406.50;6336023;22;20019;-83
2022/03/10 03:17:45;;;;;;;21.08;13.15;;;;;;;3.17;44.92;97413.94;6332416;22;20040;-84
2022/03/10 03:20:14;;;;;;;18.23;11.93;;;;;;;3.13;44.59;97424.56;6314632;22;20037;-83
2022/03/10 03:22:42;;;;;;;18.30;11.25;;;;;;;3.12;45.18;97421.16;6312056;22;20023;-83
2022/03/10 03:25:12;;;;;;;15.90;11.57;;;;;;;3.20;45.13;97426.56;6334846;22;20014;-83
2022/03/10 03:27:45;;;;;;;18.63;11.40;;;;;;;3.25;44.63;97418.50;6321397;22;20019;-83
2022/03/10 03:30:14;;;;;;;16.40;10.55;;;;;;;3.17;44.46;97424.25;6312295;22;20033;-82
2022/03/10 03:32:41;;;;;;;18.52;11.48;;;;;;;3.02;45.12;97421.03;6311117;22;20018;-83
2022/03/10 03:35:10;;;;;;;15.15;10.52;;;;;;;2.97;45.10;97427.47;6311574;22;20094;-83
2022/03/10 03:37:38;;;;;;;18.08;11.23;;;;;;;2.91;44.70;97425.34;6311091;22;20094;-84
2022/03/10 03:40:07;;;;;;;17.40;10.50;;;;;;;2.76;45.18;97422.97;6312073;22;20046;-83
2022/03/10 03:42:35;;;;;;;15.10;10.85;;;;;;;2.66;45.62;97419.41;6311531;22;20015;-83
2022/03/10 03:45:04;;;;;;;16.60;11.07;;;;;;;2.69;45.89;97426.94;6310290;22;20026;-82
2022/03/10 03:47:33;;;;;;;18.05;11.20;;;;;;;2.67;45.48;97431.38;6309354;22;20046;-83
2022/03/10 03:50:01;;;;;;;17.67;11.82;;;;;;;2.59;45.97;97428.53;6309056;22;20038;-83
2022/03/10 03:52:29;;;;;;;18.25;11.57;;;;;;;2.60;45.76;97425.00;6310011;22;20042;-83
2022/03/10 03:54:57;;;;;;;16.08;10.82;;;;;;;2.55;45.58;97427.09;6313035;22;20455;-83
2022/03/10 03:57:24;;;;;;;18.92;11.07;;;;;;;2.46;45.56;97423.44;6316200;22;20024;-83
2022/03/10 03:59:52;;;;;;;14.75;10.57;;;;;;;2.37;46.16;97424.94;6311789;22;20023;-82
2022/03/10 04:02:20;;;;;;;16.70;10.82;;;;;;;2.35;46.16;97426.78;6311969;22;20011;-83
2022/03/10 04:04:49;;;;;;;17.48;11.38;;;;;;;2.37;46.39;97435.22;6314581;22;20016;-83
2022/03/10 04:07:17;;;;;;;16.13;11.45;;;;;;;2.39;46.25;97435.94;6314931;22;20025;-83
2022/03/10 04:09:45;;;;;;;18.33;11.88;;;;;;;2.44;46.85;97433.84;6320994;22;20023;-84
2022/03/10 04:12:15;;;;;;;20.50;11.63;;;;;;;2.51;46.30;97436.78;6319243;22;20011;-82
2022/03/10 04:14:43;;;;;;;17.83;11.65;;;;;;;2.59;46.08;97443.97;6315301;22;20015;-83
2022/03/10 04:17:11;;;;;;;18.85;11.68;;;;;;;2.62;45.72;97442.03;6319418;22;20037;-83
2022/03/10 04:19:39;;;;;;;19.17;11.38;;;;;;;2.55;46.06;97448.53;6319741;22;20011;-82
2022/03/10 04:22:07;;;;;;;17.80;11.13;;;;;;;2.46;46.03;97444.84;6316843;22;20379;-84
2022/03/10 04:24:35;;;;;;;16.77;11.25;;;;;;;2.40;46.39;97450.44;6315547;22;20023;-81
2022/03/10 04:27:03;;;;;;;18.83;12.18;;;;;;;2.43;46.43;97450.25;6314129;22;20011;-82
2022/03/10 04:29:31;;;;;;;19.73;12.32;;;;;;;2.52;46.49;97445.38;6314940;22;20026;-83
2022/03/10 04:31:59;;;;;;;18.42;11.48;;;;;;;2.57;46.40;97444.09;6312652;22;20022;-81
2022/03/10 04:34:27;;;;;;;25.20;12.50;;;;;;;2.61;45.98;97442.94;6311213;22;20098;-83
2022/03/10 04:36:54;;;;;;;20.50;11.35;;;;;;;2.60;46.03;97443.88;6308938;22;20391;-83
2022/03/10 04:39:24;;;;;;;18.35;10.85;;;;;;;2.53;46.36;97441.84;6311250;22;20019;-83
2022/03/10 04:41:52;;;;;;;15.05;10.93;;;;;;;2.44;46.61;97439.00;6312219;22;20016;-83
2022/03/10 04:44:19;;;;;;;18.55;11.18;;;;;;;2.41;46.57;97446.13;6312095;22;20343;-82
2022/03/10 04:46:47;;;;;;;17.88;11.18;;;;;;;2.34;46.85;97445.75;6311987;22;20019;-80
2022/03/10 04:49:15;;;;;;;17.52;10.73;;;;;;;2.37;46.94;97435.22;6313427;22;20019;-81
2022/03/10 04:51:42;;;;;;;20.33;11.57;;;;;;;2.45;47.39;97432.94;6311830;22;20455;-82
2022/03/10 04:54:10;;;;;;;21.98;12.32;;;;;;;2.46;47.58;97434.56;6311877;22;20019;-83
2022/03/10 04:56:39;;;;;;;18.75;11.23;;;;;;;2.40;48.49;97440.16;6310718;22;20011;-83
2022/03/10 04:59:07;;;;;;;18.38;12.00;;;;;;;2.45;47.61;97442.41;6311223;22;20046;-82
2022/03/10 05:01:34;;;;;;;18.33;11.70;;;;;;;2.53;47.09;97444.41;6311467;22;20362;-83
2022/03/10 05:04:02;;;;;;;19.98;11.55;;;;;;;2.49;46.60;97443.81;6312424;22;20015;-83
2022/03/10 05:06:31;;;;;;;19.52;11.25;;;;;;;2.46;46.48;97444.84;6315861;22;20018;-83
2022/03/10 05:08:58;;;;;;;14.93;9.60;;;;;;;2.38;46.46;97443.75;6316567;22;20017;-82
2022/03/10 05:11:26;;;;;;;14.65;8.23;;;;;;;2.29;46.70;97441.84;6312787;22;20021;-83
2022/03/10 05:13:57;;;;;;;12.57;7.35;;;;;;;2.24;47.42;97437.84;6313136;22;20027;-83
2022/03/10 05:16:24;;;;;;;11.68;7.60;;;;;;;2.25;47.43;97436.09;6311612;22;20016;-82
2022/03/10 05:18:52;;;;;;;12.32;7.10;;;;;;;2.30;47.21;97433.22;6314281;22;20015;-82
2022/03/10 05:21:20;;;;;;;13.13;7.50;;;;;;;2.33;47.56;97426.06;6312525;22;20015;-83
2022/03/10 05:23:47;;;;;;;11.52;7.22;;;;;;;2.36;47.41;97425.03;6311216;22;20019;-83
2022/03/10 05:26:15;;;;;;;10.55;7.78;;;;;;;2.39;47.39;97424.81;6310839;22;20027;-83
2022/03/10 05:28:42;;;;;;;11.38;7.97;;;;;;;2.41;47.40;97426.34;6312088;22;20026;-83
2022/03/10 05:31:11;;;;;;;14.23;8.25;;;;;;;2.45;47.40;97427.78;6311401;22;20011;-83
2022/03/10 05:33:39;;;;;;;14.88;8.95;;;;;;;2.47;47.31;97420.75;6311584;22;20328;-83
2022/03/10 05:36:06;;;;;;;10.98;7.28;;;;;;;2.49;46.85;97430.94;6311400;22;20019;-83
2022/03/10 05:38:34;;;;;;;12.77;7.75;;;;;;;2.48;47.04;97422.41;6312824;22;20038;-83
2022/03/10 05:41:03;;;;;;;13.45;8.82;;;;;;;2.47;47.20;97425.06;6316554;22;20012;-83
2022/03/10 05:43:31;;;;;;;15.85;9.50;;;;;;;2.46;47.43;97423.44;6313894;22;20015;-81
2022/03/10 05:45:59;;;;;;;12.52;8.43;;;;;;;2.45;47.05;97427.78;6321507;22;20055;-84
2022/03/10 05:48:30;;;;;;;10.50;7.78;;;;;;;2.47;47.40;97438.78;6322880;22;20015;-80
2022/03/10 05:50:58;;;;;;;13.48;8.73;;;;;;;2.50;47.24;97429.22;6318381;22;20497;-78
2022/03/10 05:53:26;;;;;;;18.30;9.60;;;;;;;2.49;47.36;97433.50;6315036;22;20019;-78
2022/03/10 05:55:54;;;;;;;14.23;9.40;;;;;;;2.48;47.48;97435.28;6316638;22;20348;-81
2022/03/10 05:58:21;;;;;;;14.65;8.88;;;;;;;2.47;47.43;97436.22;6318791;22;20019;-80
2022/03/10 06:00:49;;;;;;;16.02;8.70;;;;;;;2.47;47.36;97436.22;6332121;22;20052;-80
2022/03/10 06:03:19;;;;;;;17.70;9.63;;;;;;;2.48;47.42;97439.59;6326109;22;20023;-79
2022/03/10 06:05:50;;;;;;;14.50;9.23;;;;;;;2.46;47.50;97431.97;6309388;22;20015;-80
2022/03/10 06:08:17;;;;;;;12.80;8.75;;;;;;;2.47;47.69;97430.22;6322093;22;20019;-83
2022/03/10 06:10:45;;;;;;;17.95;9.70;;;;;;;2.47;47.46;97438.78;6330350;22;20034;-79
2022/03/10 06:13:12;;;;;;;17.00;9.23;;;;;;;2.46;47.48;97433.75;6318930;22;20026;-79
2022/03/10 06:15:40;;;;;;;13.60;8.60;;;;;;;2.44;47.46;97441.56;6319350;22;20019;-80
2022/03/10 06:18:10;;;;;;;17.58;9.77;;;;;;;2.44;47.42;97441.56;6317432;22;20030;-77
2022/03/10 06:20:38;;;;;;;16.90;8.38;;;;;;;2.44;47.61;97443.34;6318865;22;20015;-82
2022/03/10 06:23:09;;;;;;;16.35;8.63;;;;;;;2.45;47.83;97437.25;6319925;22;20054;-79
2022/03/10 06:25:36;;;;;;;12.88;9.15;;;;;;;2.46;47.56;97441.47;6319398;22;20030;-80
2022/03/10 06:28:04;;;;;;;19.10;9.10;;;;;;;2.47;47.75;97443.09;6318297;22;20094;-80
2022/03/10 06:30:32;;;;;;;19.02;8.88;;;;;;;2.51;47.58;97441.94;6322178;22;20019;-79
2022/03/10 06:32:59;;;;;;;14.52;9.18;;;;;;;2.57;47.58;97445.84;6323020;22;20365;-79
2022/03/10 06:35:29;;;;;;;21.05;10.05;;;;;;;2.61;47.79;97442.94;6322107;22;20046;-79
2022/03/10 06:37:56;;;;;;;15.18;9.27;;;;;;;2.70;47.34;97446.59;6319896;22;20026;-80
2022/03/10 06:40:26;;;;;;;13.23;8.85;;;;;;;2.79;47.53;97450.25;6321875;22;20029;-78
2022/03/10 06:42:53;;;;;;;17.83;9.57;;;;;;;2.92;47.10;97452.75;6319797;22;20025;-78
2022/03/10 06:45:21;;;;;;;18.10;10.55;;;;;;;3.08;46.94;97450.69;6318720;22;20336;-77
2022/03/10 06:47:48;;;;;;;20.35;9.55;;;;;;;3.20;46.42;97454.94;6313435;22;20023;-78
2022/03/10 06:50:16;;;;;;;15.15;9.77;;;;;;;3.35;46.48;97447.00;6311464;22;20074;-78
2022/03/10 06:52:43;;;;;;;13.98;8.55;;;;;;;3.48;46.41;97438.22;6310598;22;20355;-78
2022/03/10 06:55:11;;;;;;;14.35;8.98;;;;;;;3.64;46.02;97448.16;6308927;22;20016;-78
2022/03/10 06:57:40;;;;;;;13.90;9.02;;;;;;;3.80;45.35;97457.31;6307130;22;20481;-78
2022/03/10 07:00:08;;;;;;;16.38;9.20;;;;;;;3.93;45.30;97458.00;6307537;22;20038;-77
2022/03/10 07:02:36;;;;;;;17.52;8.98;;;;;;;4.09;45.38;97450.72;6307308;22;20038;-78
2022/03/10 07:05:03;;;;;;;15.13;9.98;;;;;;;4.29;44.81;97453.50;6307656;22;20042;-78
2022/03/10 07:07:31;;;;;;;12.60;9.32;;;;;;;4.49;44.64;97454.50;6306443;22;20471;-78
2022/03/10 07:09:58;;;;;;;17.92;10.00;;;;;;;4.71;44.11;97462.16;6307621;22;20022;-77
2022/03/10 07:12:27;;;;;;;16.48;9.65;;;;;;;4.94;43.87;97460.31;6310628;22;20026;-77
2022/03/10 07:14:56;;;;;;;16.92;10.25;;;;;;;5.18;42.91;97461.00;6309958;22;20351;-77
2022/03/10 07:17:23;;;;;;;18.17;10.88;;;;;;;5.39;42.94;97463.56;6307683;22;20447;-78
2022/03/10 07:19:53;;;;;;;19.23;10.73;;;;;;;5.63;42.67;97466.69;6307288;22;20070;-79
2022/03/10 07:22:20;;;;;;;15.05;10.48;;;;;;;5.87;42.24;97468.16;6308105;22;20019;-80
2022/03/10 07:24:48;;;;;;;17.45;10.48;;;;;;;6.07;42.20;97467.28;6307966;22;20023;-78
2022/03/10 07:27:16;;;;;;;12.77;9.15;;;;;;;6.30;41.47;97469.69;6306491;22;20015;-78
2022/03/10 07:29:43;;;;;;;15.95;8.95;;;;;;;6.53;40.79;97476.25;6307216;22;20030;-78
2022/03/10 07:32:12;;;;;;;13.73;9.65;;;;;;;6.77;40.48;97475.03;6307062;22;20030;-78
2022/03/10 07:34:40;;;;;;;14.13;9.25;;;;;;;7.04;40.12;97470.94;6307528;22;20023;-78
2022/03/10 07:37:07;;;;;;;12.82;9.43;;;;;;;7.29;39.61;97475.56;6306291;22;20050;-78
2022/03/10 07:39:35;;;;;;;15.07;11.10;;;;;;;7.56;39.07;97473.97;6308119;22;20043;-79
2022/03/10 07:42:03;;;;;;;13.13;9.32;;;;;;;7.83;38.89;97479.22;6308097;22;20019;-78
2022/03/10 07:44:31;;;;;;;12.48;8.82;;;;;;;8.10;38.35;97485.41;6307385;22;20023;-77
2022/03/10 07:47:00;;;;;;;14.95;9.32;;;;;;;8.37;37.70;97479.38;6307520;22;20046;-78
2022/03/10 07:49:30;;;;;;;10.93;8.25;;;;;;;8.65;36.94;97487.97;6308567;22;20030;-77
2022/03/10 07:51:58;;;;;;;12.77;8.70;;;;;;;8.92;36.83;97491.50;6308525;22;20029;-79
2022/03/10 07:54:25;;;;;;;11.65;8.23;;;;;;;9.16;36.21;97492.66;6308875;22;20019;-80
2022/03/10 07:56:53;;;;;;;13.07;8.48;;;;;;;9.38;35.54;97492.19;6307738;22;20019;-78
2022/03/10 07:59:20;;;;;;;13.23;7.80;;;;;;;9.66;34.66;97492.03;6308849;22;20030;-79
2022/03/10 08:01:48;;;;;;;11.27;8.82;;;;;;;9.93;34.44;97493.66;6304962;22;20034;-79
2022/03/10 08:04:16;;;;;;;11.55;7.93;;;;;;;10.19;33.77;97490.16;6309010;22;20019;-80
2022/03/10 08:06:45;;;;;;;12.13;8.50;;;;;;;10.43;32.81;97482.47;6307832;22;20023;-80
2022/03/10 08:09:12;;;;;;;12.23;7.95;;;;;;;10.65;32.54;97482.84;6307593;22;20023;-79
2022/03/10 08:11:41;;;;;;;11.57;7.53;;;;;;;10.84;32.12;97484.31;6308366;22;20355;-79
2022/03/10 08:14:09;;;;;;;13.02;7.53;;;;;;;11.06;31.81;97481.09;6308372;22;20546;-80
2022/03/10 08:16:37;;;;;;;12.00;7.72;;;;;;;11.30;31.67;97482.88;6307685;22;20019;-80
2022/03/10 08:19:04;;;;;;;11.77;7.35;;;;;;;11.52;31.44;97486.63;6308559;22;20027;-80
2022/03/10 08:21:32;;;;;;;13.15;7.30;;;;;;;11.75;30.77;97489.31;6308682;22;20015;-80
2022/03/10 08:24:01;;;;;;;9.93;6.93;;;;;;;11.94;30.27;97485.56;6308251;22;20501;-79
2022/03/10 08:26:29;;;;;;;9.70;6.90;;;;;;;12.14;30.01;97482.56;6306147;22;20016;-79
2022/03/10 08:28:56;;;;;;;12.43;7.93;;;;;;;12.32;29.72;97477.06;6307109;22;20447;-79
2022/03/10 08:31:24;;;;;;;8.95;7.07;;;;;;;12.49;30.10;97480.44;6307242;22;20454;-79
2022/03/10 08:33:51;;;;;;;8.88;7.07;;;;;;;12.70;29.47;97478.00;6307167;22;20019;-79
2022/03/10 08:36:19;;;;;;;10.73;6.95;;;;;;;12.89;29.10;97474.09;6305950;22;20022;-79
2022/03/10 08:38:46;;;;;;;8.02;5.93;;;;;;;13.16;28.74;97474.56;6307260;22;20023;-80
2022/03/10 08:41:18;;;;;;;9.52;7.03;;;;;;;13.41;28.08;97467.34;6307462;22;20492;-79
2022/03/10 08:43:46;;;;;;;8.20;6.25;;;;;;;13.63;27.90;97470.09;6307242;22;20026;-79
2022/03/10 08:46:13;;;;;;;11.10;7.18;;;;;;;13.86;27.40;97475.22;6319656;22;20023;-79
2022/03/10 08:48:44;;;;;;;9.00;6.75;;;;;;;14.09;27.12;97469.91;6328311;22;20023;-78
2022/03/10 08:51:11;;;;;;;9.82;6.97;;;;;;;14.31;26.71;97471.56;6313838;22;20030;-78
2022/03/10 08:53:39;;;;;;;9.15;6.70;;;;;;;14.53;26.42;97466.38;6307313;22;20018;-79
2022/03/10 08:56:09;;;;;;;10.45;7.07;;;;;;;14.75;26.55;97462.78;6315233;22;20024;-79
2022/03/10 08:58:37;;;;;;;8.85;7.15;;;;;;;14.97;25.36;97462.81;6318598;22;20019;-78
2022/03/10 09:01:05;;;;;;;9.25;6.60;;;;;;;15.10;25.18;97465.53;6307730;22;20039;-78
2022/03/10 09:03:50;;;;;;;8.48;6.70;;;;;;;15.24;25.18;97458.59;6307286;22;20324;-78
2022/03/10 09:06:18;;;;;;;8.98;7.07;;;;;;;15.40;25.05;97460.13;6307031;22;20057;-79
2022/03/10 09:08:46;;;;;;;13.02;6.95;;;;;;;15.56;24.77;97456.38;6308008;22;20458;-80
2022/03/10 09:11:13;;;;;;;7.32;6.35;;;;;;;15.75;24.57;97463.63;6307372;22;20041;-79
2022/03/10 09:13:48;;;;;;;8.75;6.60;;;;;;;15.93;24.11;97467.56;6307824;22;20038;-80
2022/03/10 09:16:15;;;;;;;10.05;6.82;;;;;;;16.04;24.37;97462.56;6306131;22;20027;-79
2022/03/10 09:18:45;;;;;;;9.93;6.93;;;;;;;16.25;24.67;97466.13;6308433;22;20023;-79
2022/03/10 09:21:12;;;;;;;8.25;6.70;;;;;;;16.51;24.29;97464.56;6307414;22;20016;-79
2022/03/10 09:23:40;;;;;;;7.57;6.82;;;;;;;16.77;23.93;97463.81;6307158;22;20455;-79
2022/03/10 09:26:08;;;;;;;8.07;6.63;;;;;;;16.97;23.31;97454.16;6306593;22;20462;-78
2022/03/10 09:28:35;;;;;;;9.70;7.53;;;;;;;17.17;23.02;97453.38;6307477;22;20333;-80
2022/03/10 09:31:04;;;;;;;12.25;6.30;;;;;;;17.23;22.68;97453.38;6306771;22;20022;-79
2022/03/10 09:33:32;;;;;;;9.38;6.88;;;;;;;17.24;22.72;97449.72;6306020;22;20090;-79
2022/03/10 09:35:59;;;;;;;9.57;6.57;;;;;;;17.28;22.54;97450.94;6305098;22;20023;-78
2022/03/10 09:38:27;;;;;;;7.78;5.97;;;;;;;17.11;22.47;97448.91;6309465;22;20065;-81
2022/03/10 09:40:55;;;;;;;8.23;6.20;;;;;;;17.13;22.83;97441.59;6306685;22;20019;-80
2022/03/10 09:43:23;;;;;;;11.82;6.28;;;;;;;17.53;22.48;97447.66;6306396;22;20019;-80
2022/03/10 09:45:51;;;;;;;12.00;6.07;;;;;;;17.74;21.98;97448.44;6305729;22;20463;-81
2022/03/10 09:48:20;;;;;;;8.70;6.28;;;;;;;17.80;21.73;97443.16;6308338;22;20026;-81
2022/03/10 09:50:49;;;;;;;10.55;6.45;;;;;;;18.02;21.74;97446.38;6306440;22;20487;-80
2022/03/10 09:53:18;;;;;;;7.75;5.68;;;;;;;18.37;21.30;97437.31;6307234;22;20019;-80
2022/03/10 09:55:46;;;;;;;7.95;6.03;;;;;;;18.86;20.94;97436.63;6306259;22;20023;-80
2022/03/10 09:58:13;;;;;;;6.90;5.72;;;;;;;19.34;20.81;97422.00;6306656;22;20023;-80
2022/03/10 10:00:41;;;;;;;6.93;6.00;;;;;;;19.85;20.05;97426.19;6307171;22;20015;-80
2022/03/10 10:03:08;;;;;;;6.30;5.63;;;;;;;20.38;19.54;97420.28;6307860;22;20026;-80
2022/03/10 10:05:40;;;;;;;7.93;5.80;;;;;;;21.11;18.26;97420.28;6307638;22;20019;-80
2022/03/10 10:08:10;;;;;;;6.30;5.55;;;;;;;21.99;18.14;97414.00;6307122;22;20110;-81
2022/03/10 10:10:42;;;;;;;7.18;5.28;;;;;;;22.92;17.05;97421.88;6307598;22;20451;-80
2022/03/10 10:13:25;;;;;;;6.60;5.60;;;;;;;24.12;15.51;97424.16;6307350;22;20066;-80
2022/03/10 10:15:55;;;;;;;6.28;5.68;;;;;;;25.13;15.09;97424.66;6307252;22;20471;-80
2022/03/10 10:18:24;;;;;;;8.13;5.90;;;;;;;26.12;14.38;97409.75;6308480;22;20022;-80
2022/03/10 10:21:18;;;;;;;6.40;5.50;;;;;;;27.26;13.72;97416.94;6307205;22;20023;-81
2022/03/10 10:23:46;;;;;;;6.93;4.82;;;;;;;28.19;13.01;97414.84;6306567;22;20043;-80
2022/03/10 10:26:14;;;;;;;5.88;5.28;;;;;;;29.14;12.31;97411.81;6305752;22;20086;-80
2022/03/10 10:28:47;;;;;;;6.35;5.45;;;;;;;30.04;11.65;97412.25;6307187;22;20370;-80
2022/03/10 10:31:17;;;;;;;7.05;5.50;;;;;;;30.49;11.24;97409.28;6307790;22;20023;-81
2022/03/10 10:33:58;;;;;;;7.72;5.28;;;;;;;30.75;10.84;97405.13;6308395;22;20404;-81
2022/03/10 10:36:28;;;;;;;6.07;5.43;;;;;;;31.29;10.32;97407.50;6307206;22;20034;-80
2022/03/10 10:38:57;;;;;;;7.00;5.15;;;;;;;31.56;10.14;97406.78;6308090;22;20026;-80
2022/03/10 10:41:27;;;;;;;6.93;5.20;;;;;;;31.51;10.11;97404.16;6306919;22;20023;-80
2022/03/10 10:43:57;;;;;;;8.80;5.13;;;;;;;31.33;9.74;97406.63;6307810;22;20019;-81
2022/03/10 10:46:31;;;;;;;5.63;4.30;;;;;;;31.20;9.54;97408.22;6307756;22;20076;-81
2022/03/10 10:49:01;;;;;;;8.70;4.57;;;;;;;31.00;9.72;97403.94;6307397;22;20065;-81
2022/03/10 10:51:32;;;;;;;8.85;4.82;;;;;;;31.02;9.48;97409.03;6309067;22;20474;-81
2022/03/10 10:54:02;;;;;;;5.40;4.88;;;;;;;31.03;9.90;97396.34;6310295;22;20041;-81
2022/03/10 10:56:30;;;;;;;7.05;4.93;;;;;;;31.17;9.73;97398.00;6309942;22;20026;-81
2022/03/10 10:59:28;;;;;;;5.97;4.93;;;;;;;31.27;9.54;97390.81;5135244;27;20382;-80
2022/03/10 11:02:06;;;;;;;4.75;3.95;;;;;;;31.57;9.72;97384.91;5115928;28;20101;-75
2022/03/10 11:04:36;;;;;;;5.15;4.43;;;;;;;31.21;9.60;97382.06;5113113;28;20412;-77
2022/03/10 11:07:04;;;;;;;6.38;4.00;;;;;;;31.08;9.40;97378.22;5111265;28;20063;-77
2022/03/10 11:09:32;;;;;;;5.45;3.88;;;;;;;30.61;9.57;97374.63;5111257;28;20425;-78
2022/03/10 11:12:00;;;;;;;5.93;3.92;;;;;;;29.71;10.10;97371.75;5110161;28;20040;-77
2022/03/10 11:14:29;;;;;;;5.35;3.97;;;;;;;28.78;10.69;97365.66;5110261;28;20490;-77
2022/03/10 11:16:59;;;;;;;5.97;4.28;;;;;;;28.08;11.36;97363.13;5109685;28;20056;-78
2022/03/10 11:19:32;;;;;;;4.80;4.30;;;;;;;27.17;11.70;97356.91;5110081;28;20058;-77
2022/03/10 11:22:07;;;;;;;7.82;4.43;;;;;;;26.30;12.08;97355.00;5109997;28;20494;-78
2022/03/10 11:25:00;;;;;;;4.82;4.30;;;;;;;25.71;12.80;97353.44;5113374;28;20444;-80
2022/03/10 11:27:33;;;;;;;5.88;4.10;;;;;;;25.57;12.70;97355.78;5111039;28;20051;-78
2022/03/10 11:30:04;;;;;;;6.35;4.00;;;;;;;25.66;12.49;97346.19;5112039;28;20120;-79
2022/03/10 11:32:32;;;;;;;6.80;4.20;;;;;;;25.01;13.02;97345.53;5124157;28;20055;-80
2022/03/10 11:35:01;;;;;;;7.47;4.88;;;;;;;23.84;13.96;97346.00;5129660;28;20051;-80
2022/03/10 11:37:50;;;;;;;6.72;4.45;;;;;;;23.83;14.29;97355.06;5116605;28;20051;-79
2022/03/10 11:40:20;;;;;;;6.15;5.13;;;;;;;25.12;12.97;97350.94;5112170;28;20048;-80
2022/03/10 11:43:00;;;;;;;6.47;5.15;;;;;;;25.82;12.33;97346.25;5123988;28;20052;-80